Cabaceiras, Brazil
Current Conditions -  °F | °C
As of 7:43 AM on Thursday 27 Nov 2014 (Local Time) from SBKG Reporting Station
Light Rain Light Rain  
Wind Chill: 70°   Ceiling: 1000
Heat Index: 70°   Visibility: 2.5mi
Dew Point: 70°   Wind: 14mph
Humidity: 100%   Direction: 90°E
Pressure: 30"   Gusts: NA
Location:  7.49°S, 36.29°W
Report Text: SBKG 271043Z 09012KT 4000 -RA BR SCT003 BKN010 21/21 Q1016
Loading
Personal Weather Stations






























Interactive Weather Map New forecast layout! Learn more

10-Day Weather Forecast

Advertisements
Track Severe Weather on mobile